EDLV/NRN METAR and TAF weather

Enter ICAO airport designator
Station Type Date Time Source
EDLV METAR 2020/10/22 03:20 UTC NOAA

EDLV 220320Z 20006KT CAVOK 14/12 Q1009


Station Type Date Time Source
EDLV Decoded METAR 2020/10/22 03:20 UTC NOAA

Niederrhein, Germany (EDLV) 51-36-09N 006-08-32E
Oct 21, 2020 - 11:20 PM EDT / 2020.10.22 0320 UTC
Wind: from the SSW (200 degrees) at 7 MPH (6 KT):0
Visibility: greater than 7 mile(s):0
Temperature: 57 F (14 C)
Dew Point: 53 F (12 C)
Relative Humidity: 87%
Pressure (altimeter): 29.80 in. Hg (1009 hPa)
ob: EDLV 220320Z 20006KT CAVOK 14/12 Q1009
cycle: 3

Station Type Date Time Source
EDLV TAF 2020/10/22 04:27 UTC NOAA

TAF TAF EDLV 220320Z 2204/2224 20007KT 9999 FEW020 PROB30
TEMPO 2210/2214 21012KT
TEMPO 2214/2218 SHRA BKN025CB PROB30
TEMPO 2214/2218 TSRA

Example: see airport list